Time;durP1;ratioP1;P1;durP2;ratioP2;P2;SDS_P1;SDS_P2;PMS_P1;PMS_P2;Temp;Humidity;BMP_temperature;BMP_pressure;BME280_temperature;BME280_humidity;BME280_pressure;Samples;Min_cycle;Max_cycle;Signal;HPM_P1;HPM_P2
2022/08/21 15:35:20;;;;;;;5.43;3.37;;;27.40;44.50;;;;;;21320509;27;20305;-66
2022/08/21 15:45:22;;;;;;;5.20;3.83;;;27.10;41.80;;;;;;21234778;28;20209;-67
2022/08/21 15:55:24;;;;;;;10.27;4.17;;;26.90;42.80;;;;;;21234095;28;20225;-66
2022/08/21 16:05:26;;;;;;;9.53;5.63;;;26.90;43.20;;;;;;21179265;28;20473;-68
2022/08/21 16:15:28;;;;;;;6.50;3.63;;;26.90;42.40;;;;;;21153290;28;20226;-65
2022/08/21 16:25:30;;;;;;;5.70;3.30;;;26.70;42.50;;;;;;21182617;28;20221;-66
2022/08/21 16:35:36;;;;;;;10.30;3.67;;;26.50;43.90;;;;;;21142486;28;20446;-65
2022/08/21 16:45:40;;;;;;;11.77;3.73;;;26.90;44.60;;;;;;21170590;28;20240;-64
2022/08/21 16:55:42;;;;;;;5.03;3.30;;;26.50;45.30;;;;;;21133834;28;20239;-63
2022/08/21 17:05:44;;;;;;;5.93;3.10;;;26.40;44.40;;;;;;21171333;28;20815;-66
2022/08/21 17:15:46;;;;;;;4.73;3.37;;;26.30;44.60;;;;;;21171326;28;20241;-68
2022/08/21 17:25:51;;;;;;;10.93;4.60;;;26.20;44.10;;;;;;21169858;28;20237;-73
2022/08/21 17:35:53;;;;;;;6.47;4.90;;;26.10;44.70;;;;;;21169740;28;20236;-70
2022/08/21 17:45:54;;;;;;;6.23;4.40;;;26.00;45.30;;;;;;21165684;28;20658;-69
2022/08/21 17:55:56;;;;;;;5.88;3.30;;;25.90;46.40;;;;;;21146722;28;20975;-67
2022/08/21 18:05:58;;;;;;;4.90;3.27;;;26.10;46.70;;;;;;21125565;28;20281;-68
2022/08/21 18:16:00;;;;;;;8.73;3.50;;;25.60;47.40;;;;;;21138134;28;20228;-70
2022/08/21 18:26:04;;;;;;;4.57;3.60;;;25.40;48.10;;;;;;21111311;28;20640;-63
2022/08/21 18:36:06;;;;;;;7.20;3.40;;;25.10;48.90;;;;;;21080619;28;20241;-69
2022/08/21 18:46:12;;;;;;;4.43;3.30;;;24.90;49.50;;;;;;21137462;28;20538;-65
2022/08/21 18:56:13;;;;;;;5.57;3.60;;;24.60;49.80;;;;;;21163522;28;20230;-64
2022/08/21 19:06:36;;;;;;;8.20;4.03;;;24.40;50.60;;;;;;21110403;28;20252;-63
2022/08/21 19:16:40;;;;;;;4.77;3.20;;;24.20;51.50;;;;;;21094058;28;20313;-66
2022/08/21 19:26:48;;;;;;;6.00;3.80;;;23.90;53.30;;;;;;21077874;28;20233;-66
2022/08/21 19:36:50;;;;;;;4.75;3.50;;;23.60;54.60;;;;;;21129305;28;20455;-70
2022/08/21 19:46:56;;;;;;;8.37;4.20;;;23.50;55.60;;;;;;21161890;28;20209;-69
2022/08/21 19:57:02;;;;;;;5.00;3.57;;;23.10;55.70;;;;;;21161220;28;20241;-67
2022/08/21 20:07:05;;;;;;;6.00;3.57;;;22.90;56.20;;;;;;21150018;28;20278;-68
2022/08/21 20:17:11;;;;;;;5.63;3.90;;;22.60;56.70;;;;;;21090785;28;20244;-62
2022/08/21 20:27:25;;;;;;;5.40;3.70;;;22.40;57.60;;;;;;21089351;28;20725;-63
2022/08/21 20:37:29;;;;;;;7.17;3.87;;;22.00;58.40;;;;;;21090221;28;20648;-66
2022/08/21 20:47:37;;;;;;;6.13;3.90;;;21.80;59.50;;;;;;21088661;28;20263;-65
2022/08/21 20:57:47;;;;;;;7.83;3.70;;;21.70;59.70;;;;;;21087904;28;20248;-66
2022/08/21 21:08:22;;;;;;;5.33;3.83;;;21.50;60.70;;;;;;21087826;28;20284;-65
2022/08/21 21:18:40;;;;;;;5.93;3.73;;;21.40;61.50;;;;;;21069213;28;20241;-65
2022/08/21 21:28:52;;;;;;;6.00;4.10;;;21.10;62.60;;;;;;21085868;28;20713;-65
2022/08/21 21:39:23;;;;;;;5.27;3.80;;;20.90;63.30;;;;;;21085293;28;20574;-66
2022/08/21 21:49:50;;;;;;;7.60;4.00;;;20.70;64.10;;;;;;21084534;28;20208;-65
2022/08/21 22:00:23;;;;;;;7.40;4.10;;;20.60;64.90;;;;;;21083967;28;20646;-64
2022/08/21 22:10:40;;;;;;;7.20;4.00;;;20.40;65.60;;;;;;21082993;28;20204;-65
2022/08/21 22:21:13;;;;;;;6.27;4.00;;;20.20;66.10;;;;;;21116074;28;20670;-66
2022/08/21 22:31:20;;;;;;;4.57;3.87;;;20.10;66.70;;;;;;21161539;28;20243;-64
2022/08/21 22:41:25;;;;;;;5.83;4.10;;;20.20;67.40;;;;;;21164854;28;20227;-65
2022/08/21 22:51:35;;;;;;;5.17;3.90;;;20.00;67.90;;;;;;21164448;28;20206;-64
2022/08/21 23:01:42;;;;;;;9.03;3.87;;;19.80;68.80;;;;;;21164107;28;20241;-65
2022/08/21 23:11:44;;;;;;;5.33;3.97;;;19.70;69.50;;;;;;21163232;28;20256;-65
2022/08/21 23:22:18;;;;;;;7.23;3.97;;;19.50;70.30;;;;;;21162638;28;20243;-65
2022/08/21 23:32:28;;;;;;;5.63;4.13;;;19.30;71.10;;;;;;21162641;28;20241;-65
2022/08/21 23:42:57;;;;;;;13.00;4.40;;;19.30;72.00;;;;;;21171935;28;20230;-64
2022/08/21 23:53:24;;;;;;;7.57;4.50;;;19.10;72.90;;;;;;21178508;28;20734;-64
